createdAt,value
2022-10-17T00:03:06.325Z,100.00
2022-10-17T00:08:10.464Z,100.00
2022-10-17T00:13:13.568Z,100.00
2022-10-17T00:18:16.367Z,100.00
2022-10-17T00:23:19.747Z,100.00
2022-10-17T00:28:22.509Z,100.00
2022-10-17T00:33:26.411Z,100.00
2022-10-17T00:38:29.314Z,100.00
2022-10-17T00:43:54.132Z,100.00
2022-10-17T00:48:59.393Z,100.00
2022-10-17T00:54:04.026Z,100.00
2022-10-17T00:59:09.508Z,100.00
2022-10-17T01:04:12.921Z,100.00
2022-10-17T01:09:15.720Z,100.00
2022-10-17T01:14:27.639Z,100.00
2022-10-17T01:20:01.381Z,100.00
2022-10-17T01:25:23.932Z,100.00
2022-10-17T01:30:51.818Z,100.00
2022-10-17T01:36:43.676Z,100.00
2022-10-17T01:42:06.853Z,100.00
2022-10-17T01:47:13.609Z,100.00
2022-10-17T01:52:24.130Z,100.00
2022-10-17T01:57:36.134Z,100.00
2022-10-17T02:02:40.999Z,100.00
2022-10-17T02:07:43.799Z,100.00
2022-10-17T02:13:02.737Z,100.00
2022-10-17T02:18:30.054Z,100.00
2022-10-17T02:23:51.186Z,100.00
2022-10-17T02:29:19.586Z,100.00
2022-10-17T02:34:28.021Z,100.00
2022-10-17T02:39:33.075Z,100.00
2022-10-17T02:44:42.417Z,100.00
2022-10-17T02:49:50.346Z,100.00
2022-10-17T02:55:18.447Z,100.00
2022-10-17T03:00:23.913Z,100.00
2022-10-17T03:05:29.602Z,100.00
2022-10-17T03:10:32.383Z,100.00
2022-10-17T03:15:35.582Z,100.00
2022-10-17T03:20:38.397Z,100.00
2022-10-17T03:25:41.410Z,100.00
2022-10-17T03:30:44.319Z,100.00
2022-10-17T03:35:47.245Z,100.00
2022-10-17T03:40:56.408Z,100.00
2022-10-17T03:46:00.027Z,100.00
2022-10-17T03:51:06.276Z,100.00
2022-10-17T03:56:20.859Z,100.00
2022-10-17T04:01:24.432Z,100.00
2022-10-17T04:06:27.270Z,100.00
2022-10-17T04:11:30.181Z,100.00
2022-10-17T04:16:33.082Z,100.00
2022-10-17T04:21:35.878Z,100.00
2022-10-17T04:26:38.680Z,100.00
2022-10-17T04:31:41.481Z,100.00
2022-10-17T04:36:44.948Z,100.00
2022-10-17T04:41:48.005Z,100.00
2022-10-17T04:46:50.811Z,100.00
2022-10-17T04:51:53.610Z,100.00
2022-10-17T04:56:56.413Z,100.00
2022-10-17T05:01:59.216Z,100.00
2022-10-17T05:07:02.118Z,100.00
2022-10-17T05:12:08.008Z,100.00
2022-10-17T05:17:13.254Z,100.00
2022-10-17T05:22:16.053Z,100.00
2022-10-17T05:27:19.160Z,100.00
2022-10-17T05:32:22.172Z,100.00
2022-10-17T05:37:24.971Z,100.00
2022-10-17T05:42:28.209Z,100.00
2022-10-17T05:47:32.091Z,100.00
2022-10-17T05:52:35.441Z,100.00
2022-10-17T05:57:38.737Z,98.59
2022-10-17T06:02:42.047Z,93.50
2022-10-17T06:07:44.855Z,92.40
2022-10-17T06:12:47.656Z,87.97
2022-10-17T06:17:51.275Z,82.31
2022-10-17T06:22:54.485Z,77.43
2022-10-17T06:27:57.403Z,75.64
2022-10-17T06:33:00.409Z,71.11
2022-10-17T06:38:04.231Z,65.40
2022-10-17T06:43:07.546Z,60.86
2022-10-17T06:48:10.547Z,56.71
2022-10-17T06:53:13.758Z,57.95
2022-10-17T06:58:16.903Z,57.15
2022-10-17T07:03:19.770Z,55.90
2022-10-17T07:08:23.289Z,56.35
2022-10-17T07:13:26.198Z,57.09
2022-10-17T07:18:28.994Z,59.07
2022-10-17T07:23:32.205Z,61.25
2022-10-17T07:28:41.127Z,64.15
2022-10-17T07:38:53.001Z,68.42
2022-10-17T07:43:56.234Z,69.90
2022-10-17T07:48:59.428Z,71.32
2022-10-17T07:54:02.328Z,70.73
2022-10-17T07:59:08.384Z,70.84
2022-10-17T08:04:12.441Z,70.58
2022-10-17T08:09:15.909Z,65.42
2022-10-17T08:14:18.757Z,61.72
2022-10-17T08:19:21.665Z,60.94
2022-10-17T08:24:24.659Z,62.13
2022-10-17T08:29:28.173Z,62.34
2022-10-17T08:34:31.005Z,61.21
2022-10-17T08:39:33.897Z,60.97
2022-10-17T08:44:44.078Z,57.61
2022-10-17T08:49:58.174Z,56.18
2022-10-17T08:55:01.387Z,56.03
2022-10-17T09:00:14.697Z,54.58
2022-10-17T09:05:30.614Z,47.50
2022-10-17T09:10:54.193Z,40.73
2022-10-17T09:16:33.657Z,32.09
2022-10-17T09:21:46.289Z,31.36
2022-10-17T09:26:51.042Z,30.10
2022-10-17T09:32:05.166Z,27.28
2022-10-17T09:37:14.683Z,25.58
2022-10-17T09:42:23.205Z,23.82
2022-10-17T09:47:32.246Z,23.42
2022-10-17T09:52:40.346Z,23.97
2022-10-17T09:57:55.364Z,22.88
2022-10-17T10:03:21.305Z,22.16
2022-10-17T10:08:28.408Z,20.72
2022-10-17T10:13:34.789Z,21.18
2022-10-17T10:18:37.903Z,21.97
2022-10-17T10:23:43.177Z,21.73
2022-10-17T10:28:54.534Z,22.60
2022-10-17T10:34:00.098Z,23.13
2022-10-17T10:39:33.658Z,22.13
2022-10-17T10:44:39.712Z,21.76
2022-10-17T10:49:44.279Z,21.21
2022-10-17T10:55:05.306Z,21.58
2022-10-17T11:00:23.363Z,22.27
2022-10-17T11:06:12.148Z,22.23
2022-10-17T11:11:34.098Z,22.45
2022-10-17T11:16:55.646Z,22.77
2022-10-17T11:22:23.986Z,23.68
2022-10-17T11:27:30.812Z,24.02
2022-10-17T11:32:43.039Z,23.99
2022-10-17T11:37:54.975Z,25.14
2022-10-17T11:43:02.489Z,25.20
2022-10-17T11:48:13.180Z,25.36
2022-10-17T11:53:30.161Z,25.81
2022-10-17T11:59:11.008Z,26.28
2022-10-17T12:04:27.426Z,26.87
2022-10-17T12:09:41.098Z,27.02
2022-10-17T12:14:46.904Z,26.82
2022-10-17T12:19:49.998Z,26.97
2022-10-17T12:25:04.238Z,26.83
2022-10-17T12:30:13.693Z,26.49
2022-10-17T12:35:21.746Z,29.28
2022-10-17T12:40:37.217Z,30.36
2022-10-17T12:45:51.611Z,29.70
2022-10-17T12:51:34.853Z,29.87
2022-10-17T12:56:39.931Z,30.29
2022-10-17T13:01:48.076Z,32.83
2022-10-17T13:06:57.174Z,34.24
2022-10-17T13:12:04.794Z,34.17
2022-10-17T13:17:20.804Z,34.77
2022-10-17T13:22:27.506Z,36.22
2022-10-17T13:27:34.184Z,36.31
2022-10-17T13:32:38.010Z,38.17
2022-10-17T13:37:50.274Z,41.03
2022-10-17T13:42:58.053Z,43.53
2022-10-17T13:48:08.345Z,44.75
2022-10-17T13:53:19.221Z,45.52
2022-10-17T13:58:22.378Z,47.09
2022-10-17T14:03:32.558Z,47.78
2022-10-17T14:09:01.740Z,47.09
2022-10-17T14:14:15.475Z,46.23
2022-10-17T14:19:24.989Z,47.11
2022-10-17T14:24:31.636Z,48.96
2022-10-17T14:29:52.855Z,49.79
2022-10-17T14:35:10.594Z,50.66
2022-10-17T14:40:26.381Z,52.39
2022-10-17T14:45:38.756Z,53.52
2022-10-17T14:56:00.659Z,56.24
2022-10-17T15:01:03.546Z,58.41
2022-10-17T15:06:18.543Z,60.37
2022-10-17T15:11:21.339Z,62.70
2022-10-17T15:16:26.184Z,64.65
2022-10-17T15:21:47.288Z,66.57
2022-10-17T15:26:50.547Z,69.66
2022-10-17T15:31:53.535Z,71.43
2022-10-17T15:36:56.572Z,73.28
2022-10-17T15:42:00.174Z,74.24
2022-10-17T15:47:02.965Z,75.83
2022-10-17T15:52:05.972Z,77.50
2022-10-17T15:57:18.194Z,78.57
2022-10-17T16:02:22.940Z,78.81
2022-10-17T16:07:25.852Z,79.73
2022-10-17T16:12:30.205Z,79.30
2022-10-17T16:17:33.056Z,80.73
2022-10-17T16:22:37.021Z,81.03
2022-10-17T16:27:39.923Z,81.63
2022-10-17T16:32:43.680Z,82.14
2022-10-17T16:37:47.681Z,82.65
2022-10-17T16:42:50.461Z,82.93
2022-10-17T16:47:53.736Z,83.68
2022-10-17T16:52:56.492Z,83.53
2022-10-17T16:58:00.139Z,83.99
2022-10-17T17:03:03.606Z,84.21
2022-10-17T17:08:10.350Z,84.88
2022-10-17T17:13:16.198Z,85.04
2022-10-17T17:18:19.515Z,85.69
2022-10-17T17:23:22.313Z,85.30
2022-10-17T17:28:26.399Z,85.42
2022-10-17T17:33:30.373Z,85.74
2022-10-17T17:38:35.228Z,85.82
2022-10-17T17:43:38.130Z,84.61
2022-10-17T17:48:41.940Z,83.49
2022-10-17T17:53:45.166Z,82.11
2022-10-17T17:58:54.523Z,80.71
2022-10-17T18:03:59.680Z,79.60
2022-10-17T18:09:02.726Z,78.78
2022-10-17T18:14:08.601Z,77.75
2022-10-17T18:19:12.004Z,77.18
2022-10-17T18:24:14.775Z,76.81
2022-10-17T18:29:17.885Z,76.40
2022-10-17T18:34:20.896Z,76.11
2022-10-17T18:39:24.413Z,75.80
2022-10-17T18:44:27.325Z,75.37
2022-10-17T18:49:30.228Z,75.51
2022-10-17T18:54:34.870Z,75.68
2022-10-17T18:59:37.777Z,76.23
2022-10-17T19:04:41.152Z,76.85
2022-10-17T19:09:43.989Z,77.02
2022-10-17T19:14:49.041Z,77.27
2022-10-17T19:19:53.379Z,77.72
2022-10-17T19:24:56.182Z,78.07
2022-10-17T19:29:59.289Z,78.24
2022-10-17T19:35:02.091Z,78.51
2022-10-17T19:40:06.150Z,78.55
2022-10-17T19:45:09.988Z,78.74
2022-10-17T19:50:12.852Z,79.22
2022-10-17T19:55:15.656Z,79.32
2022-10-17T20:00:18.562Z,79.85
2022-10-17T20:05:23.751Z,79.91
2022-10-17T20:10:28.975Z,80.01
2022-10-17T20:15:32.084Z,80.12
2022-10-17T20:20:35.970Z,80.24
2022-10-17T20:25:38.712Z,80.17
2022-10-17T20:30:46.570Z,79.94
2022-10-17T20:35:49.543Z,79.93
2022-10-17T20:40:52.338Z,80.16
2022-10-17T20:46:03.509Z,80.18
2022-10-17T20:51:09.363Z,80.11
2022-10-17T20:56:21.978Z,80.13
2022-10-17T21:01:26.512Z,79.95
2022-10-17T21:06:29.608Z,79.63
2022-10-17T21:11:32.763Z,79.71
2022-10-17T21:16:37.554Z,79.85
2022-10-17T21:21:43.017Z,79.91
2022-10-17T21:26:47.769Z,80.08
2022-10-17T21:31:51.176Z,80.44
2022-10-17T21:36:53.950Z,80.61
2022-10-17T21:41:56.889Z,81.00
2022-10-17T21:46:59.689Z,81.26
2022-10-17T21:52:06.996Z,81.36
2022-10-17T21:57:09.818Z,81.42
2022-10-17T22:02:14.858Z,81.72
2022-10-17T22:07:17.658Z,81.84
2022-10-17T22:12:20.458Z,82.17
2022-10-17T22:17:23.462Z,82.46
2022-10-17T22:22:26.265Z,82.81
2022-10-17T22:27:29.371Z,83.12
2022-10-17T22:32:32.587Z,83.42
2022-10-17T22:37:35.594Z,83.70
2022-10-17T22:42:38.392Z,84.00
2022-10-17T22:47:41.808Z,84.43
2022-10-17T22:52:44.609Z,84.74
2022-10-17T22:57:47.663Z,85.04
2022-10-17T23:02:54.411Z,85.42
2022-10-17T23:07:57.520Z,85.70
2022-10-17T23:13:00.321Z,85.72
2022-10-17T23:18:04.118Z,85.82
2022-10-17T23:23:06.951Z,85.83
2022-10-17T23:28:10.780Z,85.70
2022-10-17T23:33:14.397Z,85.79
2022-10-17T23:38:17.198Z,85.80
2022-10-17T23:43:20.207Z,85.87
2022-10-17T23:48:23.416Z,85.58
2022-10-17T23:53:27.495Z,85.85
2022-10-17T23:58:31.168Z,85.89
